sensor_id;sensor_type;location;lat;lon;timestamp;pressure;altitude;pressure_sealevel;temperature;humidity
51876;BME280;34054;52.100;5.116;2022-09-24T00:00:11;101066.22;;;14.38;100.00
51876;BME280;34054;52.100;5.116;2022-09-24T00:00:44;101006.75;;;14.09;100.00
51876;BME280;34054;52.100;5.116;2022-09-24T00:01:17;101072.47;;;14.44;100.00
51876;BME280;34054;52.100;5.116;2022-09-24T00:01:51;101061.00;;;14.42;100.00
51876;BME280;34054;52.100;5.116;2022-09-24T00:02:23;101058.81;;;14.44;100.00
51876;BME280;34054;52.100;5.116;2022-09-24T00:02:54;101054.47;;;14.38;100.00
51876;BME280;34054;52.100;5.116;2022-09-24T00:03:27;101049.53;;;14.45;100.00
51876;BME280;34054;52.100;5.116;2022-09-24T00:04:00;101059.91;;;14.58;100.00
51876;BME280;34054;52.100;5.116;2022-09-24T00:04:35;101065.34;;;14.58;100.00
51876;BME280;34054;52.100;5.116;2022-09-24T00:05:07;101068.63;;;14.50;100.00
51876;BME280;34054;52.100;5.116;2022-09-24T00:05:40;101064.84;;;14.36;100.00
51876;BME280;34054;52.100;5.116;2022-09-24T00:06:13;101072.50;;;14.34;100.00
51876;BME280;34054;52.100;5.116;2022-09-24T00:06:46;101058.59;;;14.30;100.00
51876;BME280;34054;52.100;5.116;2022-09-24T00:07:18;101064.31;;;14.39;100.00
51876;BME280;34054;52.100;5.116;2022-09-24T00:07:51;101031.00;;;14.16;100.00
51876;BME280;34054;52.100;5.116;2022-09-24T00:08:22;101063.22;;;14.40;100.00
51876;BME280;34054;52.100;5.116;2022-09-24T00:08:55;101072.50;;;14.34;100.00
51876;BME280;34054;52.100;5.116;2022-09-24T00:09:28;101067.31;;;14.32;100.00
51876;BME280;34054;52.100;5.116;2022-09-24T00:10:00;101046.00;;;14.29;100.00
51876;BME280;34054;52.100;5.116;2022-09-24T00:10:35;101063.47;;;14.38;100.00
51876;BME280;34054;52.100;5.116;2022-09-24T00:11:09;101061.81;;;14.48;100.00
51876;BME280;34054;52.100;5.116;2022-09-24T00:11:44;101067.31;;;14.42;100.00
51876;BME280;34054;52.100;5.116;2022-09-24T00:12:15;101058.84;;;14.39;100.00
51876;BME280;34054;52.100;5.116;2022-09-24T00:12:49;101045.50;;;14.27;100.00
51876;BME280;34054;52.100;5.116;2022-09-24T00:13:22;101060.47;;;14.35;100.00
51876;BME280;34054;52.100;5.116;2022-09-24T00:13:55;101064.84;;;14.41;100.00
51876;BME280;34054;52.100;5.116;2022-09-24T00:14:27;101055.56;;;14.37;100.00
51876;BME280;34054;52.100;5.116;2022-09-24T00:15:00;101061.81;;;14.48;100.00
51876;BME280;34054;52.100;5.116;2022-09-24T00:15:34;101064.28;;;14.44;100.00
51876;BME280;34054;52.100;5.116;2022-09-24T00:16:09;101053.94;;;14.25;100.00
51876;BME280;34054;52.100;5.116;2022-09-24T00:16:44;101064.03;;;14.30;100.00
51876;BME280;34054;52.100;5.116;2022-09-24T00:17:15;101057.22;;;14.33;100.00
51876;BME280;34054;52.100;5.116;2022-09-24T00:17:47;101050.09;;;14.37;100.00
51876;BME280;34054;52.100;5.116;2022-09-24T00:18:19;101060.22;;;14.36;100.00
51876;BME280;34054;52.100;5.116;2022-09-24T00:18:52;101061.00;;;14.42;100.00
51876;BME280;34054;52.100;5.116;2022-09-24T00:19:24;101060.47;;;14.45;100.00
51876;BME280;34054;52.100;5.116;2022-09-24T00:19:56;101060.19;;;14.47;100.00
51876;BME280;34054;52.100;5.116;2022-09-24T00:20:28;101059.63;;;14.50;100.00
51876;BME280;34054;52.100;5.116;2022-09-24T00:21:10;101048.97;;;14.43;100.00
51876;BME280;34054;52.100;5.116;2022-09-24T00:21:43;101060.72;;;14.54;100.00
51876;BME280;34054;52.100;5.116;2022-09-24T00:22:16;101061.00;;;14.47;100.00
51876;BME280;34054;52.100;5.116;2022-09-24T00:22:47;101062.66;;;14.48;100.00
51876;BME280;34054;52.100;5.116;2022-09-24T00:23:19;101047.34;;;14.47;100.00
51876;BME280;34054;52.100;5.116;2022-09-24T00:23:52;101049.25;;;14.52;100.00
51876;BME280;34054;52.100;5.116;2022-09-24T00:24:27;101062.34;;;14.60;100.00
51876;BME280;34054;52.100;5.116;2022-09-24T00:25:17;101059.06;;;14.58;100.00
51876;BME280;34054;52.100;5.116;2022-09-24T00:26:09;101061.00;;;14.47;100.00
51876;BME280;34054;52.100;5.116;2022-09-24T00:27:01;101053.91;;;14.46;100.00
51876;BME280;34054;52.100;5.116;2022-09-24T00:27:34;101055.53;;;14.47;100.00
51876;BME280;34054;52.100;5.116;2022-09-24T00:28:07;101058.56;;;14.45;100.00
51876;BME280;34054;52.100;5.116;2022-09-24T00:28:39;101060.19;;;14.52;100.00
51876;BME280;34054;52.100;5.116;2022-09-24T00:29:12;101050.66;;;14.39;100.00
51876;BME280;34054;52.100;5.116;2022-09-24T00:29:45;101061.56;;;14.34;100.00
51876;BME280;34054;52.100;5.116;2022-09-24T00:30:18;101052.84;;;14.32;100.00
51876;BME280;34054;52.100;5.116;2022-09-24T00:30:49;101054.50;;;14.22;100.00
51876;BME280;34054;52.100;5.116;2022-09-24T00:31:22;101040.59;;;14.08;100.00
51876;BME280;34054;52.100;5.116;2022-09-24T00:31:54;101037.06;;;14.03;100.00
51876;BME280;34054;52.100;5.116;2022-09-24T00:32:27;101050.44;;;14.20;100.00
51876;BME280;34054;52.100;5.116;2022-09-24T00:32:58;101053.41;;;14.28;100.00
51876;BME280;34054;52.100;5.116;2022-09-24T00:33:30;101040.28;;;14.25;100.00
51876;BME280;34054;52.100;5.116;2022-09-24T00:34:03;101054.44;;;14.43;100.00
51876;BME280;34054;52.100;5.116;2022-09-24T00:34:36;101053.13;;;14.35;100.00
51876;BME280;34054;52.100;5.116;2022-09-24T00:35:08;101048.75;;;14.34;100.00
51876;BME280;34054;52.100;5.116;2022-09-24T00:35:39;101045.22;;;14.28;100.00
51876;BME280;34054;52.100;5.116;2022-09-24T00:36:12;101020.13;;;14.01;100.00
51876;BME280;34054;52.100;5.116;2022-09-24T00:36:44;101051.25;;;14.15;100.00
51876;BME280;34054;52.100;5.116;2022-09-24T00:37:16;101047.94;;;14.18;100.00
51876;BME280;34054;52.100;5.116;2022-09-24T00:37:50;101051.22;;;14.20;100.00
51876;BME280;34054;52.100;5.116;2022-09-24T00:38:21;101045.22;;;14.23;100.00
51876;BME280;34054;52.100;5.116;2022-09-24T00:38:56;101051.75;;;14.27;100.00
51876;BME280;34054;52.100;5.116;2022-09-24T00:39:28;101049.59;;;14.19;100.00
51876;BME280;34054;52.100;5.116;2022-09-24T00:40:01;101044.13;;;14.19;100.00
51876;BME280;34054;52.100;5.116;2022-09-24T00:40:35;101052.09;;;14.10;100.00
51876;BME280;34054;52.100;5.116;2022-09-24T00:41:08;101049.34;;;14.10;100.00
51876;BME280;34054;52.100;5.116;2022-09-24T00:41:41;101050.13;;;14.16;100.00
51876;BME280;34054;52.100;5.116;2022-09-24T00:42:19;101047.13;;;14.12;100.00
51876;BME280;34054;52.100;5.116;2022-09-24T00:42:52;101047.13;;;14.12;100.00
51876;BME280;34054;52.100;5.116;2022-09-24T00:43:27;101043.31;;;14.19;100.00
51876;BME280;34054;52.100;5.116;2022-09-24T00:44:01;101040.31;;;14.20;100.00
51876;BME280;34054;52.100;5.116;2022-09-24T00:45:12;101020.09;;;14.16;100.00
51876;BME280;34054;52.100;5.116;2022-09-24T00:45:44;101031.31;;;14.14;100.00
51876;BME280;34054;52.100;5.116;2022-09-24T00:46:19;101021.78;;;14.07;100.00
51876;BME280;34054;52.100;5.116;2022-09-24T00:46:55;101049.88;;;14.18;100.00
51876;BME280;34054;52.100;5.116;2022-09-24T00:47:33;101046.06;;;14.19;100.00
51876;BME280;34054;52.100;5.116;2022-09-24T00:48:08;101037.56;;;14.20;100.00
51876;BME280;34054;52.100;5.116;2022-09-24T00:48:40;101017.41;;;14.06;100.00
51876;BME280;34054;52.100;5.116;2022-09-24T00:49:14;101015.50;;;14.01;100.00
51876;BME280;34054;52.100;5.116;2022-09-24T00:49:49;101037.31;;;14.17;100.00
51876;BME280;34054;52.100;5.116;2022-09-24T00:50:24;101020.63;;;14.18;100.00
51876;BME280;34054;52.100;5.116;2022-09-24T00:51:02;101040.84;;;14.33;100.00
51876;BME280;34054;52.100;5.116;2022-09-24T00:51:37;101038.88;;;14.43;100.00
51876;BME280;34054;52.100;5.116;2022-09-24T00:52:11;101034.50;;;14.53;100.00
51876;BME280;34054;52.100;5.116;2022-09-24T00:52:48;101038.31;;;14.47;100.00
51876;BME280;34054;52.100;5.116;2022-09-24T00:53:24;101040.25;;;14.46;100.00
51876;BME280;34054;52.100;5.116;2022-09-24T00:54:00;101037.00;;;14.34;100.00
51876;BME280;34054;52.100;5.116;2022-09-24T00:54:37;101031.81;;;14.32;100.00
51876;BME280;34054;52.100;5.116;2022-09-24T00:55:10;101033.72;;;14.26;100.00
51876;BME280;34054;52.100;5.116;2022-09-24T00:55:44;101034.28;;;14.28;100.00
51876;BME280;34054;52.100;5.116;2022-09-24T00:56:21;101032.63;;;14.27;100.00
51876;BME280;34054;52.100;5.116;2022-09-24T00:56:56;101031.00;;;14.26;100.00
51876;BME280;34054;52.100;5.116;2022-09-24T00:57:30;101033.47;;;14.28;100.00
51876;BME280;34054;52.100;5.116;2022-09-24T00:58:04;101035.66;;;14.21;100.00
51876;BME280;34054;52.100;5.116;2022-09-24T00:58:42;100987.94;;;13.87;100.00
51876;BME280;34054;52.100;5.116;2022-09-24T00:59:20;101037.00;;;14.28;100.00
51876;BME280;34054;52.100;5.116;2022-09-24T00:59:55;101038.94;;;14.18;100.00
51876;BME280;34054;52.100;5.116;2022-09-24T01:00:28;101041.44;;;14.04;100.00
51876;BME280;34054;52.100;5.116;2022-09-24T01:01:04;101025.88;;;13.99;100.00
51876;BME280;34054;52.100;5.116;2022-09-24T01:01:38;101032.13;;;14.10;100.00
51876;BME280;34054;52.100;5.116;2022-09-24T01:02:10;100980.56;;;13.88;100.00
51876;BME280;34054;52.100;5.116;2022-09-24T01:02:45;100914.56;;;13.49;100.00
51876;BME280;34054;52.100;5.116;2022-09-24T01:03:26;101026.63;;;14.31;100.00
51876;BME280;34054;52.100;5.116;2022-09-24T01:03:59;101032.91;;;14.36;100.00
51876;BME280;34054;52.100;5.116;2022-09-24T01:04:32;101030.16;;;14.41;100.00
51876;BME280;34054;52.100;5.116;2022-09-24T01:05:05;100982.72;;;14.11;100.00
51876;BME280;34054;52.100;5.116;2022-09-24T01:05:40;101024.72;;;14.36;100.00
51876;BME280;34054;52.100;5.116;2022-09-24T01:06:12;101028.50;;;14.40;100.00
51876;BME280;34054;52.100;5.116;2022-09-24T01:06:44;101027.44;;;14.36;100.00
51876;BME280;34054;52.100;5.116;2022-09-24T01:07:16;101026.09;;;14.28;100.00
51876;BME280;34054;52.100;5.116;2022-09-24T01:07:48;100956.28;;;13.86;100.00
51876;BME280;34054;52.100;5.116;2022-09-24T01:08:19;101026.91;;;14.24;100.00
51876;BME280;34054;52.100;5.116;2022-09-24T01:08:52;101021.16;;;14.25;100.00
51876;BME280;34054;52.100;5.116;2022-09-24T01:09:26;101020.34;;;14.30;100.00
51876;BME280;34054;52.100;5.116;2022-09-24T01:09:58;101026.88;;;14.34;100.00
51876;BME280;34054;52.100;5.116;2022-09-24T01:10:40;101022.22;;;14.40;100.00
51876;BME280;34054;52.100;5.116;2022-09-24T01:11:33;101015.50;;;14.11;100.00
51876;BME280;34054;52.100;5.116;2022-09-24T01:12:16;101029.69;;;13.98;100.00
51876;BME280;34054;52.100;5.116;2022-09-24T01:12:59;100992.31;;;13.78;100.00
51876;BME280;34054;52.100;5.116;2022-09-24T01:14:05;101019.59;;;14.04;100.00
51876;BME280;34054;52.100;5.116;2022-09-24T01:15:03;100925.50;;;13.39;100.00
51876;BME280;34054;52.100;5.116;2022-09-24T01:15:46;101020.16;;;13.95;100.00
51876;BME280;34054;52.100;5.116;2022-09-24T01:16:32;101003.75;;;13.95;100.00
51876;BME280;34054;52.100;5.116;2022-09-24T01:17:17;101020.69;;;14.03;100.00
51876;BME280;34054;52.100;5.116;2022-09-24T01:18:01;101014.69;;;13.95;100.00
51876;BME280;34054;52.100;5.116;2022-09-24T01:18:40;101009.50;;;13.89;100.00
51876;BME280;34054;52.100;5.116;2022-09-24T01:21:07;101012.75;;;14.11;100.00
51876;BME280;34054;52.100;5.116;2022-09-24T01:21:54;101010.00;;;14.06;100.00
51876;BME280;34054;52.100;5.116;2022-09-24T01:22:42;101010.28;;;14.15;100.00
51876;BME280;34054;52.100;5.116;2022-09-24T01:23:47;101006.19;;;14.18;100.00
51876;BME280;34054;52.100;5.116;2022-09-24T01:24:46;101010.25;;;14.20;100.00
51876;BME280;34054;52.100;5.116;2022-09-24T01:25:33;101022.00;;;14.26;100.00
51876;BME280;34054;52.100;5.116;2022-09-24T01:26:30;101012.19;;;14.20;100.00
51876;BME280;34054;52.100;5.116;2022-09-24T01:27:13;101010.81;;;14.17;100.00
51876;BME280;34054;52.100;5.116;2022-09-24T01:28:00;101011.34;;;14.19;100.00
51876;BME280;34054;52.100;5.116;2022-09-24T01:28:51;101010.81;;;14.17;100.00
51876;BME280;34054;52.100;5.116;2022-09-24T01:29:48;101011.13;;;14.10;100.00
51876;BME280;34054;52.100;5.116;2022-09-24T01:30:29;100996.94;;;13.88;100.00
51876;BME280;34054;52.100;5.116;2022-09-24T01:31:09;101014.16;;;13.98;100.00
51876;BME280;34054;52.100;5.116;2022-09-24T01:31:51;101012.75;;;13.96;100.00
51876;BME280;34054;52.100;5.116;2022-09-24T01:32:29;101012.50;;;13.97;100.00
51876;BME280;34054;52.100;5.116;2022-09-24T01:33:10;100964.50;;;13.71;100.00
51876;BME280;34054;52.100;5.116;2022-09-24T01:33:48;101005.94;;;13.93;100.00
51876;BME280;34054;52.100;5.116;2022-09-24T01:34:26;101009.22;;;13.95;100.00
51876;BME280;34054;52.100;5.116;2022-09-24T01:35:08;101004.56;;;13.96;100.00
51876;BME280;34054;52.100;5.116;2022-09-24T01:35:48;101008.94;;;13.87;100.00
51876;BME280;34054;52.100;5.116;2022-09-24T01:36:25;101003.22;;;13.83;100.00
51876;BME280;34054;52.100;5.116;2022-09-24T01:37:00;100999.13;;;13.91;100.00
51876;BME280;34054;52.100;5.116;2022-09-24T01:37:35;101008.94;;;14.02;100.00
51876;BME280;34054;52.100;5.116;2022-09-24T01:38:14;101004.00;;;14.04;100.00
51876;BME280;34054;52.100;5.116;2022-09-24T01:38:50;101003.47;;;14.07;100.00
51876;BME280;34054;52.100;5.116;2022-09-24T01:39:26;101004.81;;;14.15;100.00
51876;BME280;34054;52.100;5.116;2022-09-24T01:40:00;100998.25;;;14.21;100.00
51876;BME280;34054;52.100;5.116;2022-09-24T01:40:35;101000.16;;;14.16;100.00
51876;BME280;34054;52.100;5.116;2022-09-24T01:41:11;100998.25;;;14.16;100.00
51876;BME280;34054;52.100;5.116;2022-09-24T01:41:47;100995.25;;;14.18;100.00
51876;BME280;34054;52.100;5.116;2022-09-24T01:42:20;101004.81;;;14.15;100.00
51876;BME280;34054;52.100;5.116;2022-09-24T01:42:57;101006.97;;;14.18;100.00
51876;BME280;34054;52.100;5.116;2022-09-24T01:43:31;101001.53;;;14.08;100.00
51876;BME280;34054;52.100;5.116;2022-09-24T01:44:03;100979.47;;;13.94;100.00
51876;BME280;34054;52.100;5.116;2022-09-24T01:44:38;100996.38;;;14.11;100.00
51876;BME280;34054;52.100;5.116;2022-09-24T01:45:15;100999.63;;;14.13;100.00
51876;BME280;34054;52.100;5.116;2022-09-24T01:45:49;101000.47;;;14.04;100.00
51876;BME280;34054;52.100;5.116;2022-09-24T01:46:22;100994.75;;;13.95;100.00
51876;BME280;34054;52.100;5.116;2022-09-24T01:46:56;100994.47;;;13.96;100.00
51876;BME280;34054;52.100;5.116;2022-09-24T01:47:31;101001.00;;;14.01;100.00
51876;BME280;34054;52.100;5.116;2022-09-24T01:48:09;101001.53;;;14.08;100.00
51876;BME280;34054;52.100;5.116;2022-09-24T01:48:41;100995.00;;;14.14;100.00
51876;BME280;34054;52.100;5.116;2022-09-24T01:49:12;100980.81;;;14.02;100.00
51876;BME280;34054;52.100;5.116;2022-09-24T01:49:45;100999.94;;;14.07;100.00
51876;BME280;34054;52.100;5.116;2022-09-24T01:50:18;101004.56;;;14.01;100.00
51876;BME280;34054;52.100;5.116;2022-09-24T01:50:59;100991.22;;;13.84;100.00
51876;BME280;34054;52.100;5.116;2022-09-24T01:51:40;100994.50;;;13.81;100.00
51876;BME280;34054;52.100;5.116;2022-09-24T01:52:21;100982.22;;;13.78;100.00
51876;BME280;34054;52.100;5.116;2022-09-24T01:53:01;100988.75;;;13.93;100.00
51876;BME280;34054;52.100;5.116;2022-09-24T01:53:42;100979.75;;;13.77;100.00
51876;BME280;34054;52.100;5.116;2022-09-24T01:54:21;100993.69;;;13.75;100.00
51876;BME280;34054;52.100;5.116;2022-09-24T01:54:58;100984.66;;;13.75;100.00
51876;BME280;34054;52.100;5.116;2022-09-24T01:55:40;100982.47;;;13.87;100.00
51876;BME280;34054;52.100;5.116;2022-09-24T01:56:22;100987.38;;;13.95;100.00
51876;BME280;34054;52.100;5.116;2022-09-24T01:57:03;100979.75;;;13.87;100.00
51876;BME280;34054;52.100;5.116;2022-09-24T01:57:45;100987.94;;;13.82;100.00
51876;BME280;34054;52.100;5.116;2022-09-24T01:58:25;100944.31;;;13.51;100.00
51876;BME280;34054;52.100;5.116;2022-09-24T01:59:05;100971.03;;;13.70;100.00
51876;BME280;34054;52.100;5.116;2022-09-24T01:59:47;100984.94;;;13.73;100.00
51876;BME280;34054;52.100;5.116;2022-09-24T02:00:26;100978.38;;;13.69;100.00
51876;BME280;34054;52.100;5.116;2022-09-24T02:01:03;100973.47;;;13.71;100.00
51876;BME280;34054;52.100;5.116;2022-09-24T02:01:42;100989.59;;;13.73;100.00
51876;BME280;34054;52.100;5.116;2022-09-24T02:02:22;100985.78;;;13.69;100.00
51876;BME280;34054;52.100;5.116;2022-09-24T02:03:06;100975.13;;;13.67;100.00
51876;BME280;34054;52.100;5.116;2022-09-24T02:03:47;100975.97;;;13.73;100.00
51876;BME280;34054;52.100;5.116;2022-09-24T02:04:24;100989.59;;;13.62;100.00
51876;BME280;34054;52.100;5.116;2022-09-24T02:05:04;100973.50;;;13.50;100.00
51876;BME280;34054;52.100;5.116;2022-09-24T02:05:47;100981.97;;;13.64;100.00
51876;BME280;34054;52.100;5.116;2022-09-24T02:06:24;100980.31;;;13.74;100.00
51876;BME280;34054;52.100;5.116;2022-09-24T02:07:04;100973.75;;;13.80;100.00
51876;BME280;34054;52.100;5.116;2022-09-24T02:07:46;100974.31;;;13.77;100.00
51876;BME280;34054;52.100;5.116;2022-09-24T02:08:28;100978.94;;;13.71;100.00
51876;BME280;34054;52.100;5.116;2022-09-24T02:10:02;100983.03;;;13.48;100.00
51876;BME280;34054;52.100;5.116;2022-09-24T02:10:40;100972.44;;;13.52;100.00
51876;BME280;34054;52.100;5.116;2022-09-24T02:11:18;100978.97;;;13.66;100.00
51876;BME280;34054;52.100;5.116;2022-09-24T02:11:54;100971.88;;;13.55;100.00
51876;BME280;34054;52.100;5.116;2022-09-24T02:12:32;100975.41;;;13.60;100.00
51876;BME280;34054;52.100;5.116;2022-09-24T02:13:13;100974.59;;;13.55;100.00
51876;BME280;34054;52.100;5.116;2022-09-24T02:13:52;100969.41;;;13.63;100.00
51876;BME280;34054;52.100;5.116;2022-09-24T02:14:31;100968.84;;;13.66;100.00
51876;BME280;34054;52.100;5.116;2022-09-24T02:15:15;100967.22;;;13.60;100.00
51876;BME280;34054;52.100;5.116;2022-09-24T02:15:55;100965.03;;;13.62;100.00
51876;BME280;34054;52.100;5.116;2022-09-24T02:16:34;100968.84;;;13.66;100.00
51876;BME280;34054;52.100;5.116;2022-09-24T02:17:10;100971.59;;;13.72;100.00
51876;BME280;34054;52.100;5.116;2022-09-24T02:17:45;100976.47;;;13.75;100.00
51876;BME280;34054;52.100;5.116;2022-09-24T02:18:28;100976.22;;;13.71;100.00
51876;BME280;34054;52.100;5.116;2022-09-24T02:19:05;100963.66;;;13.70;100.00
51876;BME280;34054;52.100;5.116;2022-09-24T02:19:41;100969.94;;;13.71;100.00
51876;BME280;34054;52.100;5.116;2022-09-24T02:20:18;100973.50;;;13.76;100.00
51876;BME280;34054;52.100;5.116;2022-09-24T02:20:54;100943.75;;;13.59;100.00
51876;BME280;34054;52.100;5.116;2022-09-24T02:21:30;100959.59;;;13.73;100.00
51876;BME280;34054;52.100;5.116;2022-09-24T02:22:05;100963.66;;;13.75;100.00
51876;BME280;34054;52.100;5.116;2022-09-24T02:22:40;100964.75;;;13.85;100.00
51876;BME280;34054;52.100;5.116;2022-09-24T02:23:16;100956.28;;;13.86;100.00
51876;BME280;34054;52.100;5.116;2022-09-24T02:23:54;100970.75;;;13.92;100.00
51876;BME280;34054;52.100;5.116;2022-09-24T02:24:33;100966.09;;;13.92;100.00
51876;BME280;34054;52.100;5.116;2022-09-24T02:25:17;100963.91;;;13.84;100.00
51876;BME280;34054;52.100;5.116;2022-09-24T02:25:55;100962.88;;;13.64;100.00
51876;BME280;34054;52.100;5.116;2022-09-24T02:26:32;100967.78;;;13.62;100.00
51876;BME280;34054;52.100;5.116;2022-09-24T02:27:04;100967.75;;;13.68;100.00
51876;BME280;34054;52.100;5.116;2022-09-24T02:27:36;100969.13;;;13.75;100.00
51876;BME280;34054;52.100;5.116;2022-09-24T02:28:09;100962.56;;;13.76;100.00
51876;BME280;34054;52.100;5.116;2022-09-24T02:28:40;100971.84;;;13.75;100.00
51876;BME280;34054;52.100;5.116;2022-09-24T02:29:13;100974.84;;;13.79;100.00
51876;BME280;34054;52.100;5.116;2022-09-24T02:29:45;100966.13;;;13.72;100.00
51876;BME280;34054;52.100;5.116;2022-09-24T02:30:18;100967.50;;;13.74;100.00
51876;BME280;34054;52.100;5.116;2022-09-24T02:30:52;100968.31;;;13.70;100.00
51876;BME280;34054;52.100;5.116;2022-09-24T02:31:30;100969.13;;;13.70;100.00
51876;BME280;34054;52.100;5.116;2022-09-24T02:32:08;100971.03;;;13.70;100.00
51876;BME280;34054;52.100;5.116;2022-09-24T02:32:44;100964.47;;;13.81;100.00
51876;BME280;34054;52.100;5.116;2022-09-24T02:33:17;100968.88;;;13.72;100.00
51876;BME280;34054;52.100;5.116;2022-09-24T02:34:16;100967.78;;;13.73;100.00
51876;BME280;34054;52.100;5.116;2022-09-24T02:34:54;100969.13;;;13.70;100.00
51876;BME280;34054;52.100;5.116;2022-09-24T02:35:32;100965.59;;;13.64;100.00
51876;BME280;34054;52.100;5.116;2022-09-24T02:36:04;100974.06;;;13.68;100.00
51876;BME280;34054;52.100;5.116;2022-09-24T02:36:37;100963.69;;;13.60;100.00
51876;BME280;34054;52.100;5.116;2022-09-24T02:37:13;100956.84;;;13.52;100.00
51876;BME280;34054;52.100;5.116;2022-09-24T02:37:46;100972.94;;;13.69;100.00
51876;BME280;34054;52.100;5.116;2022-09-24T02:38:18;100970.22;;;13.74;100.00
51876;BME280;34054;52.100;5.116;2022-09-24T02:38:50;100968.31;;;13.64;100.00
51876;BME280;34054;52.100;5.116;2022-09-24T02:39:22;100969.94;;;13.71;100.00
51876;BME280;34054;52.100;5.116;2022-09-24T02:39:54;100962.28;;;13.78;100.00
51876;BME280;34054;52.100;5.116;2022-09-24T02:40:26;100951.38;;;13.78;100.00
51876;BME280;34054;52.100;5.116;2022-09-24T02:40:59;100968.53;;;13.89;100.00
51876;BME280;34054;52.100;5.116;2022-09-24T02:41:32;100961.19;;;13.84;100.00
51876;BME280;34054;52.100;5.116;2022-09-24T02:42:05;100961.47;;;13.82;100.00
51876;BME280;34054;52.100;5.116;2022-09-24T02:42:40;100957.13;;;13.76;100.00
51876;BME280;34054;52.100;5.116;2022-09-24T02:43:13;100957.38;;;13.80;100.00
51876;BME280;34054;52.100;5.116;2022-09-24T02:43:45;100965.56;;;13.85;100.00
51876;BME280;34054;52.100;5.116;2022-09-24T02:44:18;100955.47;;;13.65;100.00
51876;BME280;34054;52.100;5.116;2022-09-24T02:44:50;100960.09;;;13.75;100.00
51876;BME280;34054;52.100;5.116;2022-09-24T02:45:23;100954.38;;;13.76;100.00
51876;BME280;34054;52.100;5.116;2022-09-24T02:45:56;100964.47;;;13.81;100.00
51876;BME280;34054;52.100;5.116;2022-09-24T02:46:28;100966.38;;;13.80;100.00
51876;BME280;34054;52.100;5.116;2022-09-24T02:46:59;100958.50;;;13.63;100.00
51876;BME280;34054;52.100;5.116;2022-09-24T02:47:32;100960.97;;;13.60;100.00
51876;BME280;34054;52.100;5.116;2022-09-24T02:48:04;100967.78;;;13.62;100.00
51876;BME280;34054;52.100;5.116;2022-09-24T02:48:35;100963.13;;;13.68;100.00
51876;BME280;34054;52.100;5.116;2022-09-24T02:49:08;100965.03;;;13.73;100.00
51876;BME280;34054;52.100;5.116;2022-09-24T02:49:41;100963.94;;;13.69;100.00
51876;BME280;34054;52.100;5.116;2022-09-24T02:50:13;100960.97;;;13.60;100.00
51876;BME280;34054;52.100;5.116;2022-09-24T02:50:44;100968.88;;;13.51;100.00
51876;BME280;34054;52.100;5.116;2022-09-24T02:51:17;100957.41;;;13.49;100.00
51876;BME280;34054;52.100;5.116;2022-09-24T02:51:49;100962.06;;;13.59;100.00
51876;BME280;34054;52.100;5.116;2022-09-24T02:52:20;100953.56;;;13.65;100.00
51876;BME280;34054;52.100;5.116;2022-09-24T02:52:53;100960.13;;;13.80;100.00
51876;BME280;34054;52.100;5.116;2022-09-24T02:53:25;100957.88;;;13.92;100.00
51876;BME280;34054;52.100;5.116;2022-09-24T02:53:56;100960.88;;;13.96;100.00
51876;BME280;34054;52.100;5.116;2022-09-24T02:54:29;100955.94;;;14.03;100.00
51876;BME280;34054;52.100;5.116;2022-09-24T02:55:02;100959.47;;;14.09;100.00
51876;BME280;34054;52.100;5.116;2022-09-24T02:55:33;100958.91;;;14.17;100.00
51876;BME280;34054;52.100;5.116;2022-09-24T02:56:07;100957.53;;;14.25;100.00
51876;BME280;34054;52.100;5.116;2022-09-24T02:56:39;100950.13;;;14.25;100.00
51876;BME280;34054;52.100;5.116;2022-09-24T02:57:11;100961.31;;;14.34;100.00
51876;BME280;34054;52.100;5.116;2022-09-24T02:57:43;100961.28;;;14.39;100.00
51876;BME280;34054;52.100;5.116;2022-09-24T02:58:15;100959.34;;;14.45;100.00
51876;BME280;34054;52.100;5.116;2022-09-24T02:58:46;100953.09;;;14.39;100.00
51876;BME280;34054;52.100;5.116;2022-09-24T02:59:18;100952.84;;;14.36;100.00
51876;BME280;34054;52.100;5.116;2022-09-24T02:59:51;100963.22;;;14.39;100.00
51876;BME280;34054;52.100;5.116;2022-09-24T03:00:24;100956.41;;;14.31;100.00
51876;BME280;34054;52.100;5.116;2022-09-24T03:00:56;100952.03;;;14.30;100.00
51876;BME280;34054;52.100;5.116;2022-09-24T03:01:29;100953.38;;;14.38;100.00
51876;BME280;34054;52.100;5.116;2022-09-24T03:02:02;100955.84;;;14.34;100.00
51876;BME280;34054;52.100;5.116;2022-09-24T03:02:34;100945.28;;;14.12;100.00
51876;BME280;34054;52.100;5.116;2022-09-24T03:03:06;100959.47;;;14.09;100.00
51876;BME280;34054;52.100;5.116;2022-09-24T03:03:38;100963.34;;;14.03;100.00
51876;BME280;34054;52.100;5.116;2022-09-24T03:04:09;100957.03;;;14.07;100.00
51876;BME280;34054;52.100;5.116;2022-09-24T03:04:43;100963.84;;;14.10;100.00
51876;BME280;34054;52.100;5.116;2022-09-24T03:05:14;100953.44;;;14.17;100.00
51876;BME280;34054;52.100;5.116;2022-09-24T03:05:48;100954.81;;;14.14;100.00
51876;BME280;34054;52.100;5.116;2022-09-24T03:06:19;100961.63;;;14.17;100.00
51876;BME280;34054;52.100;5.116;2022-09-24T03:06:52;100958.09;;;14.17;100.00
51876;BME280;34054;52.100;5.116;2022-09-24T03:07:24;100954.81;;;14.25;100.00
51876;BME280;34054;52.100;5.116;2022-09-24T03:07:55;100949.34;;;14.25;100.00
51876;BME280;34054;52.100;5.116;2022-09-24T03:08:28;100949.38;;;14.20;100.00
51876;BME280;34054;52.100;5.116;2022-09-24T03:09:01;100944.72;;;14.20;100.00